NC84 weather

Ellis Airport
Hobgood, North Carolina, United States

Public forecast

Using degrees Fahrenheit for public forecast. Weather courtesy of forecast.io.

Closest aviation weather report (METAR) to Ellis Airport

Closest report is Tarboro Edgecombe Airport, 10.4 nm (19.2 km) SW. Retrieved 2019/11/15 22:35 UTC (0 seconds ago):

KETC 152235Z AUTO 02007KT 5SM -RA BR OVC013 07/06 A3012 RMK AO2 P0002 T00710061

Closest aviation forecast (TAF) to Ellis Airport

Closest forecast is Pitt Greenville Airport, 24.5 nm (45.3 km) S. Retrieved 2019/11/15 18:36 UTC (4 hours ago):

TAF KPGV 151733Z 1518/1618 01008KT P6SM -RA OVC004 FM152000 02011KT 5SM RA OVC007 FM160700 02014KT P6SM RA OVC015 FM161000 02016G24KT P6SM RA OVC015 AMD LTD TO CLD VIS AND WIND